LOZ weather

London-Corbin Airport/Magee Field
London, Kentucky, United States

Public forecast

Using degrees Fahrenheit for public forecast. Weather courtesy of forecast.io.

Current aviation weather report (METAR) for London-Corbin Airport/Magee Field

Retrieved 2020/07/09 23:53 UTC (27 minutes ago):

KLOZ 092353Z AUTO 00000KT 10SM FEW065 30/21 A2993 RMK AO2 LTG DSNT W-N SLP120 60002 T03000206 10333 20272 53002

Aviation forecast (TAF) for London-Corbin Airport/Magee Field

Retrieved 2020-07-10 00:42 UTC (0 seconds ago):

TAF KLOZ 092339Z 1000/1024 VRB04KT P6SM VCTS SCT040CB BKN100 FM100200 VRB03KT P6SM BKN100